Time;durP1;ratioP1;P1;durP2;ratioP2;P2;SDS_P1;SDS_P2;PMS_P1;PMS_P2;Temp;Humidity;BMP_temperature;BMP_pressure;BME280_temperature;BME280_humidity;BME280_pressure;Samples;Min_cycle;Max_cycle;Signal;HPM_P1;HPM_P2
2021/04/19 00:01:05;;;;;;;31.67;21.50;;;9.00;99.90;;;;;;4948600;28;20034;-85
2021/04/19 00:03:30;;;;;;;35.75;22.15;;;9.00;99.90;;;;;;4945755;28;20027;-83
2021/04/19 00:05:56;;;;;;;33.50;22.58;;;8.90;99.90;;;;;;4959704;28;20173;-83
2021/04/19 00:08:22;;;;;;;36.90;23.17;;;8.90;99.90;;;;;;4955603;28;20362;-83
2021/04/19 00:10:47;;;;;;;32.53;22.60;;;8.90;99.90;;;;;;4943426;28;20034;-82
2021/04/19 00:13:13;;;;;;;34.75;23.38;;;9.20;99.90;;;;;;4957004;28;20041;-85
2021/04/19 00:15:39;;;;;;;34.75;23.05;;;8.80;99.90;;;;;;4968947;28;20027;-84
2021/04/19 00:18:05;;;;;;;33.97;22.98;;;8.80;99.90;;;;;;4967265;28;20481;-83
2021/04/19 00:20:33;;;;;;;35.22;22.65;;;8.90;99.90;;;;;;4971976;28;20030;-83
2021/04/19 00:22:59;;;;;;;34.85;23.23;;;8.90;99.90;;;;;;4973922;28;20018;-83
2021/04/19 00:25:25;;;;;;;35.17;22.83;;;8.90;99.90;;;;;;4951279;28;20037;-84
2021/04/19 00:27:51;;;;;;;31.48;21.95;;;8.90;99.90;;;;;;4971150;28;20126;-84
2021/04/19 00:30:18;;;;;;;35.42;23.85;;;8.90;99.90;;;;;;4970711;28;20134;-83
2021/04/19 00:32:44;;;;;;;32.25;22.33;;;8.90;99.90;;;;;;4948285;28;20054;-83
2021/04/19 00:35:10;;;;;;;37.00;23.42;;;8.90;99.90;;;;;;4976386;28;20026;-81
2021/04/19 00:37:36;;;;;;;30.67;21.45;;;8.90;99.90;;;;;;4949824;28;20547;-83
2021/04/19 00:40:09;;;;;;;34.08;21.42;;;8.90;99.90;;;;;;4957414;28;21132;-82
2021/04/19 00:42:35;;;;;;;37.92;23.60;;;8.90;99.90;;;;;;4958353;28;20496;-80
2021/04/19 00:45:00;;;;;;;32.80;22.20;;;8.90;99.90;;;;;;4958136;28;20030;-81
2021/04/19 00:47:26;;;;;;;34.50;22.25;;;8.90;99.90;;;;;;4946249;28;20031;-83
2021/04/19 00:49:52;;;;;;;33.67;21.50;;;8.90;99.90;;;;;;4951496;28;20030;-83
2021/04/19 00:52:18;;;;;;;37.13;22.45;;;8.80;99.90;;;;;;4945947;28;20027;-82
2021/04/19 00:54:44;;;;;;;36.08;22.88;;;8.80;99.90;;;;;;4970200;28;20062;-86
2021/04/19 00:57:09;;;;;;;34.05;23.15;;;8.90;99.90;;;;;;4968019;28;20563;-84
2021/04/19 00:59:35;;;;;;;35.35;23.23;;;8.80;99.90;;;;;;4942905;28;20026;-84
2021/04/19 01:02:01;;;;;;;35.22;23.48;;;8.70;99.90;;;;;;4975545;28;20050;-85
2021/04/19 01:04:27;;;;;;;37.05;24.25;;;8.70;99.90;;;;;;4962455;28;20038;-84
2021/04/19 01:06:55;;;;;;;35.38;22.58;;;8.70;99.90;;;;;;4944041;28;20061;-84
2021/04/19 01:09:21;;;;;;;36.45;24.13;;;8.70;99.90;;;;;;4943429;28;20370;-82
2021/04/19 01:11:46;;;;;;;35.15;22.98;;;8.70;99.90;;;;;;4953224;28;20027;-84
2021/04/19 01:14:12;;;;;;;34.50;22.70;;;8.70;99.90;;;;;;4950433;28;20034;-83
2021/04/19 01:16:38;;;;;;;36.80;24.00;;;8.70;99.90;;;;;;4955957;28;20115;-84
2021/04/19 01:19:03;;;;;;;35.60;23.98;;;8.70;99.90;;;;;;4944712;28;20031;-84
2021/04/19 01:21:31;;;;;;;35.22;22.23;;;8.70;99.90;;;;;;4942777;28;20070;-83
2021/04/19 01:23:57;;;;;;;39.53;23.55;;;8.70;99.90;;;;;;4960617;28;20027;-83
2021/04/19 01:26:22;;;;;;;35.28;23.35;;;8.70;99.90;;;;;;4952870;28;20035;-81
2021/04/19 01:28:48;;;;;;;32.70;22.50;;;8.80;99.90;;;;;;4950152;28;20096;-85
2021/04/19 01:31:14;;;;;;;37.35;23.77;;;9.10;99.90;;;;;;4944856;28;20038;-82
2021/04/19 01:33:40;;;;;;;33.83;22.90;;;8.60;99.90;;;;;;4947813;28;20049;-83
2021/04/19 01:36:05;;;;;;;34.88;21.77;;;8.60;99.90;;;;;;4953429;28;20085;-82
2021/04/19 01:38:31;;;;;;;34.47;23.65;;;8.60;99.90;;;;;;4991028;23;20058;-76
2021/04/19 01:40:57;;;;;;;35.75;22.73;;;8.60;99.90;;;;;;4984788;28;20029;-76
2021/04/19 01:43:23;;;;;;;40.33;23.83;;;8.60;99.90;;;;;;4979445;28;20043;-77
2021/04/19 01:45:51;;;;;;;35.25;22.70;;;8.60;99.90;;;;;;4983143;28;20030;-76
2021/04/19 01:48:19;;;;;;;36.40;23.50;;;8.60;99.90;;;;;;4984682;28;20030;-75
2021/04/19 01:50:44;;;;;;;37.85;23.00;;;8.60;99.90;;;;;;4978763;28;20041;-77
2021/04/19 01:53:10;;;;;;;36.65;22.42;;;8.60;99.90;;;;;;4983210;28;20034;-78
2021/04/19 01:55:36;;;;;;;36.15;23.52;;;8.50;99.90;;;;;;4983438;28;20030;-77
2021/04/19 01:58:10;;;;;;;32.72;22.05;;;8.50;99.90;;;;;;4985888;28;20112;-77
2021/04/19 02:00:53;;;;;;;34.58;22.60;;;8.50;99.90;;;;;;4976478;28;20104;-76
2021/04/19 02:03:48;;;;;;;35.47;23.05;;;8.50;99.90;;;;;;4980290;28;20041;-76
2021/04/19 02:06:38;;;;;;;36.80;23.63;;;8.50;99.90;;;;;;4981731;28;20022;-77
2021/04/19 02:09:23;;;;;;;32.20;21.87;;;8.60;99.90;;;;;;4982228;28;20397;-75
2021/04/19 02:12:00;;;;;;;36.20;23.15;;;8.60;99.90;;;;;;4981923;28;20046;-80
2021/04/19 02:14:55;;;;;;;37.30;22.85;;;8.60;99.90;;;;;;4973747;28;20060;-76
2021/04/19 02:17:51;;;;;;;31.45;21.63;;;8.50;99.90;;;;;;4973703;28;20054;-75
2021/04/19 02:20:35;;;;;;;32.13;20.50;;;8.60;99.90;;;;;;4979745;28;20031;-76
2021/04/19 02:23:06;;;;;;;37.58;22.40;;;8.60;99.90;;;;;;4975990;28;20034;-76
2021/04/19 02:25:37;;;;;;;30.15;21.05;;;8.60;99.90;;;;;;4988085;28;20019;-76
2021/04/19 02:28:06;;;;;;;34.03;21.73;;;8.70;99.90;;;;;;4978254;28;20050;-77
2021/04/19 02:30:40;;;;;;;35.65;21.38;;;8.60;99.90;;;;;;4979290;28;20050;-77
2021/04/19 02:33:15;;;;;;;36.13;21.48;;;8.60;99.90;;;;;;4980301;28;20084;-76
2021/04/19 02:35:44;;;;;;;32.85;21.27;;;8.60;99.90;;;;;;4994936;28;20122;-76
2021/04/19 02:38:17;;;;;;;31.00;20.73;;;8.60;99.90;;;;;;4977127;28;20515;-77
2021/04/19 02:40:44;;;;;;;31.83;21.13;;;8.60;99.90;;;;;;4977680;28;20018;-78
2021/04/19 02:43:10;;;;;;;38.47;23.17;;;8.50;99.90;;;;;;4978595;28;20421;-76
2021/04/19 02:45:36;;;;;;;34.40;21.63;;;8.40;99.90;;;;;;4977348;28;20061;-76
2021/04/19 02:48:03;;;;;;;33.03;22.00;;;8.40;99.90;;;;;;4980427;28;20026;-76
2021/04/19 02:50:30;;;;;;;32.28;21.40;;;8.40;99.90;;;;;;4995063;28;20026;-76
2021/04/19 02:52:57;;;;;;;34.83;23.05;;;8.30;99.90;;;;;;4975199;28;20085;-75
2021/04/19 02:55:26;;;;;;;36.83;23.85;;;8.20;99.90;;;;;;4979777;28;20041;-75
2021/04/19 02:57:56;;;;;;;32.40;21.80;;;8.10;99.90;;;;;;4976267;28;20049;-76
2021/04/19 03:00:26;;;;;;;38.75;23.15;;;8.10;99.90;;;;;;4992167;28;20082;-78
2021/04/19 03:02:52;;;;;;;34.13;22.95;;;8.00;99.90;;;;;;4984253;28;20042;-76
2021/04/19 03:05:19;;;;;;;32.47;22.35;;;8.00;99.90;;;;;;4995396;28;20056;-77
2021/04/19 03:07:57;;;;;;;37.53;23.77;;;8.00;99.90;;;;;;4977979;28;20128;-78
2021/04/19 03:10:24;;;;;;;34.33;22.58;;;7.90;99.90;;;;;;4978820;28;20073;-75
2021/04/19 03:12:54;;;;;;;38.88;22.88;;;8.00;99.90;;;;;;4977836;28;20034;-76
2021/04/19 03:15:24;;;;;;;35.20;23.10;;;8.00;99.90;;;;;;4977523;28;20420;-76
2021/04/19 03:17:52;;;;;;;39.40;24.13;;;8.00;99.90;;;;;;4975278;28;20037;-75
2021/04/19 03:20:21;;;;;;;38.78;23.63;;;8.00;99.90;;;;;;4976293;28;20045;-76
2021/04/19 03:22:48;;;;;;;38.42;24.08;;;7.90;99.90;;;;;;4979643;28;20034;-79
2021/04/19 03:25:17;;;;;;;36.67;22.73;;;8.00;99.90;;;;;;4977550;28;20056;-76
2021/04/19 03:27:47;;;;;;;37.13;23.50;;;8.00;99.90;;;;;;4975785;28;20049;-75
2021/04/19 03:30:16;;;;;;;33.83;22.75;;;8.00;99.90;;;;;;4980363;28;20026;-76
2021/04/19 03:32:47;;;;;;;35.58;23.08;;;8.00;99.90;;;;;;4975463;28;20030;-76
2021/04/19 03:35:16;;;;;;;34.10;23.35;;;7.90;99.90;;;;;;4976465;28;20030;-76
2021/04/19 03:37:45;;;;;;;33.30;22.50;;;8.00;99.90;;;;;;4976178;28;20370;-77
2021/04/19 03:40:27;;;;;;;35.35;23.25;;;8.00;99.90;;;;;;4980880;28;20485;-76
2021/04/19 03:42:56;;;;;;;37.00;23.85;;;8.00;99.90;;;;;;4974159;28;20026;-77
2021/04/19 03:45:24;;;;;;;37.20;23.83;;;8.00;99.90;;;;;;4989814;28;20045;-76
2021/04/19 03:47:52;;;;;;;34.22;23.02;;;7.90;99.90;;;;;;4975113;28;20034;-75
2021/04/19 03:50:22;;;;;;;39.13;24.27;;;7.90;99.90;;;;;;4975076;28;20030;-76
2021/04/19 03:52:50;;;;;;;40.10;23.10;;;7.80;99.90;;;;;;4975438;28;20030;-78
2021/04/19 03:55:16;;;;;;;33.53;22.95;;;7.80;99.90;;;;;;4978223;28;20030;-77
2021/04/19 03:57:45;;;;;;;35.75;23.90;;;7.80;99.90;;;;;;4977793;28;20117;-79
2021/04/19 04:00:13;;;;;;;34.40;23.67;;;7.80;99.90;;;;;;4977536;28;20034;-75
2021/04/19 04:02:42;;;;;;;39.40;23.25;;;7.80;99.90;;;;;;4977681;28;20034;-75
2021/04/19 04:05:09;;;;;;;38.80;23.73;;;7.70;99.90;;;;;;4976467;28;20135;-75
2021/04/19 04:07:36;;;;;;;36.17;23.95;;;7.80;99.90;;;;;;4974331;28;20030;-75
2021/04/19 04:10:06;;;;;;;37.40;23.05;;;7.70;99.90;;;;;;4978348;28;20033;-75
2021/04/19 04:12:35;;;;;;;36.25;24.00;;;7.70;99.90;;;;;;4979575;28;20027;-74
2021/04/19 04:15:00;;;;;;;38.42;24.45;;;7.70;99.90;;;;;;4975566;28;20256;-80
2021/04/19 04:17:26;;;;;;;38.55;24.67;;;7.70;99.90;;;;;;4988151;28;20030;-79
2021/04/19 04:19:52;;;;;;;35.40;24.98;;;7.70;99.90;;;;;;4968757;28;20039;-76
2021/04/19 04:22:18;;;;;;;39.72;23.35;;;7.70;99.90;;;;;;4971501;28;20034;-76
2021/04/19 04:24:44;;;;;;;37.40;24.13;;;7.70;99.90;;;;;;4982132;28;20034;-76
2021/04/19 04:27:11;;;;;;;41.63;24.83;;;7.80;99.90;;;;;;4979861;28;20500;-76
2021/04/19 04:29:37;;;;;;;36.58;23.23;;;7.80;99.90;;;;;;4981464;28;20034;-75
2021/04/19 04:32:04;;;;;;;36.40;22.65;;;7.80;99.90;;;;;;4984816;28;20030;-81
2021/04/19 04:34:29;;;;;;;37.30;24.42;;;7.80;99.90;;;;;;4980293;28;20035;-75
2021/04/19 04:36:55;;;;;;;36.97;24.38;;;7.80;99.90;;;;;;4980972;28;20038;-76
2021/04/19 04:39:21;;;;;;;36.03;24.23;;;7.70;99.90;;;;;;4984694;28;20030;-77
2021/04/19 04:41:47;;;;;;;38.70;24.73;;;7.70;99.90;;;;;;4996131;28;20393;-79
2021/04/19 04:44:17;;;;;;;38.22;24.27;;;7.70;99.90;;;;;;4987028;28;20132;-76
2021/04/19 04:47:00;;;;;;;37.22;24.25;;;7.70;99.90;;;;;;4987472;28;20084;-77
2021/04/19 04:49:37;;;;;;;42.20;24.35;;;7.80;99.90;;;;;;4981702;28;20086;-77
2021/04/19 04:52:05;;;;;;;40.00;24.25;;;7.80;99.90;;;;;;4979650;28;20164;-75
2021/04/19 04:54:32;;;;;;;41.95;25.55;;;7.80;99.90;;;;;;4996146;28;20485;-75
2021/04/19 04:57:01;;;;;;;35.65;23.95;;;8.20;99.90;;;;;;4978757;28;20026;-75
2021/04/19 04:59:28;;;;;;;39.33;24.98;;;7.80;99.90;;;;;;4980376;28;20018;-77
2021/04/19 05:01:55;;;;;;;39.13;23.77;;;7.80;99.90;;;;;;4979251;28;22154;-79
2021/04/19 05:04:22;;;;;;;42.78;25.23;;;7.80;99.90;;;;;;4986150;28;20039;-77
2021/04/19 05:06:48;;;;;;;39.55;24.63;;;7.80;99.90;;;;;;4975872;28;20061;-77
2021/04/19 05:09:14;;;;;;;40.17;25.17;;;7.80;99.90;;;;;;4990824;28;20026;-76
2021/04/19 05:11:42;;;;;;;39.20;24.77;;;7.80;99.90;;;;;;4975681;28;20030;-74
2021/04/19 05:14:08;;;;;;;41.20;25.75;;;7.80;99.90;;;;;;4972028;28;20034;-78
2021/04/19 05:16:34;;;;;;;43.60;26.55;;;7.80;99.90;;;;;;4981238;28;20030;-77
2021/04/19 05:19:01;;;;;;;48.05;31.77;;;7.70;99.90;;;;;;4970694;28;20141;-75
2021/04/19 05:21:27;;;;;;;41.92;27.40;;;7.70;99.90;;;;;;4976553;28;20027;-76
2021/04/19 05:23:54;;;;;;;45.20;26.45;;;7.70;99.90;;;;;;4984303;28;20058;-75
2021/04/19 05:26:20;;;;;;;46.13;28.77;;;7.70;99.90;;;;;;4976846;28;20034;-76
2021/04/19 05:28:46;;;;;;;42.58;26.73;;;7.70;99.90;;;;;;4978358;28;20473;-77
2021/04/19 05:31:12;;;;;;;43.42;27.85;;;7.70;99.90;;;;;;4986238;28;20068;-76
2021/04/19 05:33:38;;;;;;;47.63;28.92;;;7.60;99.90;;;;;;4981474;28;20054;-75
2021/04/19 05:36:09;;;;;;;46.70;28.13;;;7.70;99.90;;;;;;4996478;28;20432;-76
2021/04/19 05:38:36;;;;;;;43.95;27.77;;;7.70;99.90;;;;;;4984147;28;20081;-78
2021/04/19 05:41:02;;;;;;;42.15;25.77;;;7.70;99.90;;;;;;4980796;28;20041;-79
2021/04/19 05:43:28;;;;;;;49.90;29.15;;;7.70;99.90;;;;;;4981916;28;20524;-76
2021/04/19 05:45:56;;;;;;;46.08;28.83;;;7.80;99.90;;;;;;4981928;28;20125;-77
2021/04/19 05:48:22;;;;;;;48.53;29.92;;;7.80;99.90;;;;;;4986521;28;20058;-77
2021/04/19 05:50:54;;;;;;;52.28;30.52;;;7.80;99.90;;;;;;4987609;28;20169;-79
2021/04/19 05:53:20;;;;;;;47.30;29.60;;;7.80;99.90;;;;;;4985874;28;20117;-76
2021/04/19 05:55:47;;;;;;;51.38;31.20;;;7.80;99.90;;;;;;5000037;28;20049;-77
2021/04/19 05:58:23;;;;;;;52.85;30.35;;;7.80;99.90;;;;;;4983792;28;20027;-79
2021/04/19 06:00:54;;;;;;;48.28;29.02;;;7.80;99.90;;;;;;4978608;28;20620;-76
2021/04/19 06:03:34;;;;;;;46.97;28.75;;;7.80;99.90;;;;;;4996262;28;20083;-78
2021/04/19 06:06:26;;;;;;;47.97;28.13;;;7.80;99.90;;;;;;4994578;28;20455;-76
2021/04/19 06:09:02;;;;;;;46.47;29.52;;;7.80;99.90;;;;;;4974042;28;20042;-82
2021/04/19 06:11:46;;;;;;;44.67;28.27;;;7.80;99.90;;;;;;4984072;28;20038;-75
2021/04/19 06:14:16;;;;;;;42.28;27.60;;;7.80;99.90;;;;;;4982446;28;20034;-77
2021/04/19 06:16:42;;;;;;;45.55;27.27;;;7.90;99.90;;;;;;4982908;28;20023;-77
2021/04/19 06:19:16;;;;;;;44.35;26.40;;;8.00;99.90;;;;;;4997879;28;20041;-77
2021/04/19 06:21:43;;;;;;;44.30;27.65;;;8.00;99.90;;;;;;4984340;28;20037;-78
2021/04/19 06:24:10;;;;;;;39.45;26.70;;;8.20;99.90;;;;;;4985314;28;20511;-78
2021/04/19 06:26:36;;;;;;;41.22;27.05;;;8.10;99.90;;;;;;4980382;28;20035;-78
2021/04/19 06:29:04;;;;;;;40.72;26.63;;;8.10;99.90;;;;;;4982320;28;20464;-77
2021/04/19 06:31:31;;;;;;;46.20;27.33;;;8.20;99.90;;;;;;4994860;28;20035;-78
2021/04/19 06:34:10;;;;;;;49.03;29.85;;;8.10;99.90;;;;;;4984359;28;20527;-79
2021/04/19 06:36:42;;;;;;;47.53;28.17;;;8.20;99.90;;;;;;4978852;28;20030;-82
2021/04/19 06:39:11;;;;;;;45.50;28.13;;;8.20;99.90;;;;;;4983395;28;20046;-76
2021/04/19 06:41:37;;;;;;;43.97;27.67;;;8.20;99.90;;;;;;4982968;28;20026;-79
2021/04/19 06:44:04;;;;;;;40.08;26.80;;;8.20;99.90;;;;;;4979868;28;20021;-79
2021/04/19 06:46:32;;;;;;;40.95;26.50;;;8.20;99.90;;;;;;4975459;28;20031;-76
2021/04/19 06:48:58;;;;;;;47.67;27.48;;;8.30;99.90;;;;;;4996104;28;20031;-78
2021/04/19 06:51:25;;;;;;;42.72;28.05;;;8.30;99.90;;;;;;4981300;28;20378;-82
2021/04/19 06:53:54;;;;;;;44.35;27.90;;;8.30;99.90;;;;;;4982082;28;20054;-77
2021/04/19 06:56:26;;;;;;;45.63;27.13;;;8.30;99.90;;;;;;4982176;28;20026;-77
2021/04/19 06:58:54;;;;;;;42.50;27.40;;;8.40;99.90;;;;;;4981100;28;20421;-78
2021/04/19 07:01:21;;;;;;;47.08;30.55;;;8.40;99.90;;;;;;4985495;28;20081;-77
2021/04/19 07:03:53;;;;;;;49.78;29.60;;;8.40;99.90;;;;;;4978437;28;20034;-81
2021/04/19 07:06:21;;;;;;;46.10;27.45;;;8.40;99.90;;;;;;4979284;28;20569;-82
2021/04/19 07:08:48;;;;;;;42.30;27.02;;;8.40;99.90;;;;;;5001947;28;20132;-77
2021/04/19 07:11:17;;;;;;;44.15;27.45;;;8.40;99.90;;;;;;4981681;28;20034;-80
2021/04/19 07:13:44;;;;;;;44.70;28.38;;;8.40;99.90;;;;;;4981889;28;20037;-83
2021/04/19 07:16:10;;;;;;;43.67;27.30;;;8.40;99.90;;;;;;4980458;28;20073;-79
2021/04/19 07:18:36;;;;;;;43.85;26.45;;;8.40;99.90;;;;;;4977094;28;20027;-77
2021/04/19 07:21:02;;;;;;;39.75;25.75;;;8.50;99.90;;;;;;4978089;28;20018;-81
2021/04/19 07:23:28;;;;;;;42.33;27.45;;;8.60;99.90;;;;;;4980555;28;20116;-78
2021/04/19 07:25:53;;;;;;;41.55;26.88;;;8.60;99.90;;;;;;4977277;28;20097;-77
2021/04/19 07:28:19;;;;;;;44.75;25.50;;;8.70;99.90;;;;;;4978736;28;20036;-80
2021/04/19 07:30:45;;;;;;;44.20;27.70;;;8.80;99.90;;;;;;4982012;28;20512;-79
2021/04/19 07:33:33;;;;;;;49.05;26.73;;;8.80;99.90;;;;;;4978997;28;20117;-85
2021/04/19 07:36:29;;;;;;;47.33;27.17;;;8.90;99.90;;;;;;4980556;28;20022;-83
2021/04/19 07:38:57;;;;;;;43.63;27.33;;;9.00;99.90;;;;;;4978327;28;20501;-79
2021/04/19 07:41:47;;;;;;;39.17;24.67;;;9.20;99.90;;;;;;4971083;28;20029;-76
2021/04/19 07:44:33;;;;;;;40.77;25.77;;;9.50;99.90;;;;;;4981896;28;20118;-78
2021/04/19 07:47:17;;;;;;;42.97;26.25;;;9.60;99.90;;;;;;4985541;28;20034;-78
2021/04/19 07:50:07;;;;;;;40.35;23.83;;;9.70;99.90;;;;;;4982060;28;20122;-77
2021/04/19 07:52:55;;;;;;;39.88;24.85;;;9.80;99.90;;;;;;4977187;28;20558;-76
2021/04/19 07:55:24;;;;;;;34.78;23.45;;;9.70;99.90;;;;;;4971267;28;20081;-76
2021/04/19 07:57:50;;;;;;;37.60;24.27;;;9.80;99.90;;;;;;4981199;28;20034;-77
2021/04/19 08:00:31;;;;;;;40.08;23.42;;;9.90;99.90;;;;;;4975988;28;20023;-77
2021/04/19 08:03:01;;;;;;;33.92;20.48;;;10.00;99.90;;;;;;4980327;28;20037;-76
2021/04/19 08:05:35;;;;;;;34.13;21.60;;;10.00;99.90;;;;;;4994653;28;20082;-79
2021/04/19 08:08:01;;;;;;;31.50;20.27;;;10.10;99.90;;;;;;4998893;28;20037;-79
2021/04/19 08:10:27;;;;;;;27.50;18.13;;;10.40;99.90;;;;;;4980342;28;20026;-78
2021/04/19 08:13:12;;;;;;;28.38;19.60;;;10.60;99.90;;;;;;4976546;28;20034;-76
2021/04/19 08:15:40;;;;;;;30.30;19.45;;;10.50;99.90;;;;;;4978878;28;20027;-77
2021/04/19 08:18:13;;;;;;;29.90;18.42;;;10.50;99.90;;;;;;4978436;28;20516;-77
2021/04/19 08:20:48;;;;;;;29.88;18.30;;;10.60;99.90;;;;;;4988988;28;20046;-76
2021/04/19 08:23:15;;;;;;;31.17;18.60;;;10.80;99.90;;;;;;4984344;28;20023;-80
2021/04/19 08:25:43;;;;;;;28.13;20.02;;;10.90;99.90;;;;;;4985756;28;20117;-80
2021/04/19 08:28:15;;;;;;;27.20;18.75;;;10.90;99.90;;;;;;4981420;28;20033;-79
2021/04/19 08:30:43;;;;;;;32.08;19.40;;;10.90;99.90;;;;;;4983981;28;20205;-79
2021/04/19 08:33:10;;;;;;;29.45;19.85;;;10.90;99.90;;;;;;4986782;28;20030;-78
2021/04/19 08:35:39;;;;;;;29.42;19.08;;;11.00;99.90;;;;;;4986806;28;20536;-80
2021/04/19 08:38:06;;;;;;;29.25;18.38;;;11.00;99.90;;;;;;4988484;28;20038;-78
2021/04/19 08:40:34;;;;;;;26.05;18.50;;;11.20;99.90;;;;;;4986038;28;20050;-78
2021/04/19 08:43:00;;;;;;;27.48;18.95;;;11.30;99.90;;;;;;4968478;28;20567;-76
2021/04/19 08:45:27;;;;;;;28.48;19.50;;;11.40;99.90;;;;;;4988787;28;20138;-77
2021/04/19 08:47:54;;;;;;;28.85;19.27;;;11.40;99.90;;;;;;4986067;28;20031;-79
2021/04/19 08:50:26;;;;;;;28.20;18.52;;;11.30;99.90;;;;;;4977341;28;20038;-77
2021/04/19 08:52:54;;;;;;;32.42;19.05;;;11.50;99.90;;;;;;4983128;28;20034;-78
2021/04/19 08:55:21;;;;;;;26.95;18.98;;;11.70;99.90;;;;;;4979467;28;20037;-80
2021/04/19 08:57:47;;;;;;;27.80;18.65;;;11.80;99.90;;;;;;4985999;28;20508;-77
2021/04/19 09:00:18;;;;;;;32.17;19.85;;;12.00;99.90;;;;;;4986014;28;20097;-78
2021/04/19 09:02:44;;;;;;;27.73;19.30;;;12.00;99.90;;;;;;4984872;28;20405;-76
2021/04/19 09:05:17;;;;;;;28.67;19.25;;;12.00;99.90;;;;;;4985348;28;20109;-77
2021/04/19 09:07:46;;;;;;;35.13;19.33;;;11.70;99.90;;;;;;4998656;28;20493;-79
2021/04/19 09:10:20;;;;;;;29.60;20.02;;;11.60;99.90;;;;;;4983592;28;20045;-76
2021/04/19 09:12:46;;;;;;;26.70;19.48;;;11.50;99.90;;;;;;4983514;28;20034;-78
2021/04/19 09:15:16;;;;;;;29.92;19.90;;;11.60;99.90;;;;;;4983845;28;20497;-81
2021/04/19 09:17:43;;;;;;;29.88;20.13;;;11.70;99.90;;;;;;4982144;28;20030;-78
2021/04/19 09:20:12;;;;;;;29.63;19.70;;;11.70;99.90;;;;;;4981795;28;20026;-80
2021/04/19 09:22:38;;;;;;;29.15;18.42;;;11.80;99.90;;;;;;4983871;28;20031;-77
2021/04/19 09:25:14;;;;;;;24.67;18.33;;;12.00;99.90;;;;;;4982878;28;20489;-77
2021/04/19 09:27:48;;;;;;;31.27;19.75;;;12.20;99.90;;;;;;4975762;28;21064;-79
2021/04/19 09:30:23;;;;;;;26.77;18.10;;;12.20;99.90;;;;;;4984589;28;20050;-77
2021/04/19 09:33:06;;;;;;;29.38;19.17;;;12.40;99.90;;;;;;4980973;28;20034;-78
2021/04/19 09:35:45;;;;;;;27.00;18.30;;;12.60;99.40;;;;;;5003355;28;20401;-78
2021/04/19 09:38:49;;;;;;;26.58;18.55;;;12.40;99.90;;;;;;4982155;28;20405;-78
2021/04/19 09:41:17;;;;;;;27.77;17.70;;;12.60;99.60;;;;;;4995794;28;20019;-75
2021/04/19 09:43:56;;;;;;;24.55;18.05;;;12.80;98.10;;;;;;4984861;28;20030;-77
2021/04/19 09:46:30;;;;;;;25.92;17.25;;;13.00;97.80;;;;;;4983416;28;20023;-77
2021/04/19 09:48:59;;;;;;;26.85;18.38;;;13.00;97.30;;;;;;4987816;28;20030;-77
2021/04/19 09:51:36;;;;;;;28.38;19.10;;;13.00;97.40;;;;;;4985363;28;20026;-79
2021/04/19 09:54:13;;;;;;;25.30;19.02;;;12.90;97.30;;;;;;4981415;28;20035;-78
2021/04/19 09:56:53;;;;;;;25.63;18.60;;;12.90;97.70;;;;;;4978764;28;20051;-80
2021/04/19 09:59:20;;;;;;;;;;;13.10;96.60;;;;;;4979474;28;20023;-77
2021/04/19 10:01:48;;;;;;;25.55;17.77;;;13.10;96.70;;;;;;4985382;28;19960;-77
2021/04/19 10:04:14;;;;;;;24.88;18.20;;;13.00;96.50;;;;;;4979518;28;20324;-79
2021/04/19 10:06:49;;;;;;;26.23;19.10;;;13.00;97.20;;;;;;4972735;28;20080;-77
2021/04/19 10:09:21;;;;;;;26.30;19.35;;;12.90;96.90;;;;;;4982334;28;20064;-79
2021/04/19 10:11:50;;;;;;;43.28;26.98;;;12.80;97.20;;;;;;4978201;28;20520;-77
2021/04/19 10:14:18;;;;;;;26.90;19.45;;;12.80;96.90;;;;;;4964389;28;20049;-77
2021/04/19 10:16:48;;;;;;;27.90;19.98;;;12.90;95.70;;;;;;4974733;28;20090;-80
2021/04/19 10:19:24;;;;;;;25.67;19.73;;;12.80;96.20;;;;;;4982376;28;20044;-78
2021/04/19 10:22:07;;;;;;;26.27;19.40;;;12.90;96.40;;;;;;4979750;28;20105;-79
2021/04/19 10:24:34;;;;;;;25.92;20.02;;;13.20;95.30;;;;;;4986608;28;20667;-77
2021/04/19 10:27:00;;;;;;;27.67;20.42;;;13.20;95.70;;;;;;4982714;28;20037;-77
2021/04/19 10:29:27;;;;;;;24.60;19.02;;;13.30;95.50;;;;;;4982647;28;20034;-80
2021/04/19 10:31:58;;;;;;;29.13;20.67;;;13.40;95.10;;;;;;4982133;28;20033;-80
2021/04/19 10:34:26;;;;;;;25.67;19.48;;;13.30;95.70;;;;;;4981818;28;20034;-81
2021/04/19 10:37:13;;;;;;;29.25;19.92;;;13.30;95.40;;;;;;4982352;28;20547;-77
2021/04/19 10:39:39;;;;;;;28.50;20.02;;;13.30;96.00;;;;;;4981225;28;20054;-78
2021/04/19 10:42:06;;;;;;;24.65;19.25;;;13.20;95.50;;;;;;4976294;28;20027;-78
2021/04/19 10:44:31;;;;;;;26.20;19.95;;;13.10;95.60;;;;;;4976780;28;20054;-83
2021/04/19 10:46:57;;;;;;;26.67;20.05;;;13.10;95.60;;;;;;4977865;28;20122;-79
2021/04/19 10:49:27;;;;;;;25.83;19.35;;;13.00;95.90;;;;;;4982914;28;20060;-77
2021/04/19 10:51:55;;;;;;;28.58;19.95;;;13.00;95.90;;;;;;4976223;28;20038;-78
2021/04/19 10:54:29;;;;;;;29.23;20.73;;;12.90;96.80;;;;;;4975715;28;20034;-78
2021/04/19 10:56:55;;;;;;;26.13;19.48;;;12.80;96.60;;;;;;4982946;28;20030;-78
2021/04/19 10:59:23;;;;;;;27.15;19.77;;;12.70;96.40;;;;;;4977946;28;20057;-77
2021/04/19 11:02:04;;;;;;;26.23;20.23;;;12.50;97.00;;;;;;4979961;28;20113;-82
2021/04/19 11:04:32;;;;;;;27.95;19.85;;;12.50;96.90;;;;;;4984646;28;20030;-77
2021/04/19 11:07:22;;;;;;;26.67;19.88;;;12.50;97.60;;;;;;4982334;28;20046;-77
2021/04/19 11:10:07;;;;;;;;;;;12.50;97.00;;;;;;4985344;28;20049;-79
2021/04/19 11:12:32;;;;;;;25.90;19.67;;;12.50;97.30;;;;;;4977700;28;20173;-77
2021/04/19 11:15:10;;;;;;;30.30;19.92;;;12.50;96.80;;;;;;4983024;28;20043;-80
2021/04/19 11:17:36;;;;;;;29.45;20.17;;;12.50;96.90;;;;;;4981563;28;20030;-78
2021/04/19 11:20:22;;;;;;;29.90;19.73;;;12.40;96.80;;;;;;4978267;28;20046;-83
2021/04/19 11:22:49;;;;;;;25.23;19.35;;;12.60;97.20;;;;;;4980718;28;20050;-77
2021/04/19 11:25:23;;;;;;;31.20;19.65;;;12.70;96.40;;;;;;4985123;28;20042;-80
2021/04/19 11:27:51;;;;;;;27.98;19.88;;;13.00;96.90;;;;;;4984610;28;20037;-77
2021/04/19 11:30:23;;;;;;;26.15;19.63;;;13.00;96.70;;;;;;4989751;28;20061;-77
2021/04/19 11:33:02;;;;;;;31.48;21.20;;;13.10;96.80;;;;;;4984113;28;20046;-78
2021/04/19 11:35:38;;;;;;;26.23;18.88;;;13.40;96.80;;;;;;4988350;28;20493;-77
2021/04/19 11:38:06;;;;;;;24.98;18.85;;;13.90;95.80;;;;;;4974883;28;20031;-77
2021/04/19 11:40:40;;;;;;;22.92;17.70;;;14.50;93.40;;;;;;4982879;28;20425;-77
2021/04/19 11:43:25;;;;;;;24.05;19.30;;;14.80;92.40;;;;;;4979746;28;20160;-77
2021/04/19 11:46:17;;;;;;;28.92;20.23;;;14.90;92.20;;;;;;4982692;28;20026;-77
2021/04/19 11:48:44;;;;;;;31.30;20.08;;;15.10;93.20;;;;;;4979952;28;20042;-76
2021/04/19 11:51:12;;;;;;;29.08;18.48;;;15.40;92.80;;;;;;4987103;28;20056;-76
2021/04/19 11:53:39;;;;;;;25.90;16.95;;;15.40;93.30;;;;;;4986917;28;20030;-79
2021/04/19 11:56:06;;;;;;;26.27;17.00;;;15.30;91.30;;;;;;5001394;28;20077;-78
2021/04/19 11:58:41;;;;;;;21.98;17.63;;;16.00;91.00;;;;;;4992467;28;20516;-77
2021/04/19 12:01:07;;;;;;;22.92;16.25;;;14.90;91.10;;;;;;4988345;28;20031;-80
2021/04/19 12:03:33;;;;;;;22.27;16.95;;;14.60;91.80;;;;;;4987114;28;20207;-79
2021/04/19 12:06:02;;;;;;;26.13;17.77;;;14.60;91.70;;;;;;4986616;28;20497;-77
2021/04/19 12:08:28;;;;;;;23.55;17.05;;;14.60;91.90;;;;;;4987546;28;20025;-77
2021/04/19 12:10:54;;;;;;;26.52;18.05;;;14.50;91.80;;;;;;4989543;28;20034;-77
2021/04/19 12:13:20;;;;;;;24.58;17.38;;;14.20;92.40;;;;;;4992358;28;20027;-77
2021/04/19 12:15:52;;;;;;;24.50;16.85;;;14.30;92.70;;;;;;4978228;28;20045;-81
2021/04/19 12:18:19;;;;;;;24.90;17.20;;;14.20;92.20;;;;;;4985610;28;20551;-77
2021/04/19 12:20:44;;;;;;;21.92;16.77;;;14.30;92.50;;;;;;4995474;28;20401;-77
2021/04/19 12:23:10;;;;;;;23.55;16.90;;;14.40;92.40;;;;;;4991897;28;20033;-76
2021/04/19 12:25:36;;;;;;;20.52;16.10;;;14.60;92.10;;;;;;4988774;28;20116;-76
2021/04/19 12:28:02;;;;;;;20.90;17.33;;;14.50;92.00;;;;;;4992059;28;20113;-78
2021/04/19 12:30:29;;;;;;;23.20;16.85;;;14.30;91.80;;;;;;4985876;28;20104;-79
2021/04/19 12:32:54;;;;;;;23.13;17.30;;;13.90;92.60;;;;;;4988896;28;20038;-78
2021/04/19 12:35:20;;;;;;;22.05;17.40;;;13.90;92.60;;;;;;4986766;28;20022;-77
2021/04/19 12:37:47;;;;;;;20.55;16.33;;;13.70;92.90;;;;;;4998958;28;20034;-75
2021/04/19 12:40:13;;;;;;;23.58;17.13;;;13.70;93.20;;;;;;4987909;28;20419;-74
2021/04/19 12:42:38;;;;;;;21.98;17.10;;;13.70;94.30;;;;;;4986566;28;20045;-76
2021/04/19 12:45:05;;;;;;;72.68;44.33;;;13.60;95.10;;;;;;4979091;28;20085;-78
2021/04/19 12:47:30;;;;;;;24.15;17.38;;;13.60;94.20;;;;;;4982501;28;20051;-77